Absarokee, Montana
Current Conditions -  °F | °C
As of 6:53 PM on Monday 24 Nov 2014 (Local Time) from KBIL Reporting Station
Broken Clouds Broken Clouds  
Wind Chill: 29°   Ceiling: 16000
Heat Index: 35°   Visibility: 10mi
Dew Point: 14°   Wind: 7mph
Humidity: 42%   Direction: 240°WSW
Pressure: 30.1"   Gusts: NA
Location:  45.53°N, 109.43°W
Report Text: KBIL 250153Z 24006KT 10SM BKN160 02/M10 A3010 RMK AO2 SLP216 T00171100 $
Loading
Personal Weather Stations






























Interactive Weather Map New forecast layout! Learn more

10-Day Weather Forecast

Advertisements
Track Severe Weather on mobile